<?xml version="1.0" encoding="UTF-8" standalone="no" ?>
<gpx xmlns="http://www.topografix.com/GPX/1/1" xmlns:xsi="http://www.w3.org/2001/XMLSchema-instance" xsi:schemaLocation="http://www.topografix.com/GPX/1/1 http://www.topografix.com/GPX/1/1/gpx.xsd" version="1.1" creator="VisuGPX - https://www.visugpx.com">
  <metadata>
    <name>rando Badan Limony</name>
  </metadata>
  <trk>
    <name><![CDATA[14293481-Enregistrement du 17/02/2022]]></name>
    <extensions>
      <line xmlns="http://www.topografix.com/GPX/gpx_style/0/2">
        <color>0000FF</color>
        <width>4</width>
      </line>
    </extensions>
    <trkseg>
      <trkpt lat="45.35024" lon="4.75884">
        <ele>140</ele>
        <time>2022-02-20T11:05:22Z</time>
      </trkpt>
      <trkpt lat="45.35014" lon="4.75882">
        <ele>140</ele>
        <time>2022-02-20T11:05:35Z</time>
      </trkpt>
      <trkpt lat="45.35" lon="4.7587">
        <ele>140</ele>
        <time>2022-02-20T11:05:57Z</time>
      </trkpt>
      <trkpt lat="45.34955" lon="4.75856">
        <ele>140</ele>
        <time>2022-02-20T11:06:59Z</time>
      </trkpt>
      <trkpt lat="45.34942" lon="4.7584">
        <ele>139</ele>
        <time>2022-02-20T11:07:22Z</time>
      </trkpt>
      <trkpt lat="45.34956" lon="4.75814">
        <ele>140</ele>
        <time>2022-02-20T11:07:52Z</time>
      </trkpt>
      <trkpt lat="45.34933" lon="4.75801">
        <ele>139</ele>
        <time>2022-02-20T11:08:25Z</time>
      </trkpt>
      <trkpt lat="45.3493" lon="4.75825">
        <ele>139</ele>
        <time>2022-02-20T11:08:48Z</time>
      </trkpt>
      <trkpt lat="45.34926" lon="4.75782">
        <ele>139</ele>
        <time>2022-02-20T11:09:29Z</time>
      </trkpt>
      <trkpt lat="45.34908" lon="4.75792">
        <ele>139</ele>
        <time>2022-02-20T11:09:55Z</time>
      </trkpt>
      <trkpt lat="45.3487" lon="4.75789">
        <ele>139</ele>
        <time>2022-02-20T11:10:46Z</time>
      </trkpt>
      <trkpt lat="45.3485" lon="4.75798">
        <ele>139</ele>
        <time>2022-02-20T11:11:14Z</time>
      </trkpt>
      <trkpt lat="45.3482" lon="4.75765">
        <ele>139</ele>
        <time>2022-02-20T11:12:04Z</time>
      </trkpt>
      <trkpt lat="45.348" lon="4.7576">
        <ele>139</ele>
        <time>2022-02-20T11:12:31Z</time>
      </trkpt>
      <trkpt lat="45.34786" lon="4.75738">
        <ele>141</ele>
        <time>2022-02-20T11:12:59Z</time>
      </trkpt>
      <trkpt lat="45.34746" lon="4.75736">
        <ele>142</ele>
        <time>2022-02-20T11:13:52Z</time>
      </trkpt>
      <trkpt lat="45.3471" lon="4.75717">
        <ele>142</ele>
        <time>2022-02-20T11:14:44Z</time>
      </trkpt>
      <trkpt lat="45.34692" lon="4.75716">
        <ele>141</ele>
        <time>2022-02-20T11:15:08Z</time>
      </trkpt>
      <trkpt lat="45.3468" lon="4.75704">
        <ele>142</ele>
        <time>2022-02-20T11:15:27Z</time>
      </trkpt>
      <trkpt lat="45.34657" lon="4.75698">
        <ele>141</ele>
        <time>2022-02-20T11:15:59Z</time>
      </trkpt>
      <trkpt lat="45.34605" lon="4.7566">
        <ele>142</ele>
        <time>2022-02-20T11:17:17Z</time>
      </trkpt>
      <trkpt lat="45.34584" lon="4.7566">
        <ele>141</ele>
        <time>2022-02-20T11:17:45Z</time>
      </trkpt>
      <trkpt lat="45.3453" lon="4.75687">
        <ele>141</ele>
        <time>2022-02-20T11:19:01Z</time>
      </trkpt>
      <trkpt lat="45.34493" lon="4.75696">
        <ele>141</ele>
        <time>2022-02-20T11:19:51Z</time>
      </trkpt>
      <trkpt lat="45.34477" lon="4.75685">
        <ele>142</ele>
        <time>2022-02-20T11:20:15Z</time>
      </trkpt>
      <trkpt lat="45.34474" lon="4.75657">
        <ele>144</ele>
        <time>2022-02-20T11:20:41Z</time>
      </trkpt>
      <trkpt lat="45.34465" lon="4.75662">
        <ele>143</ele>
        <time>2022-02-20T11:20:54Z</time>
      </trkpt>
      <trkpt lat="45.34467" lon="4.75674">
        <ele>142</ele>
        <time>2022-02-20T11:21:06Z</time>
      </trkpt>
      <trkpt lat="45.34482" lon="4.75671">
        <ele>142</ele>
        <time>2022-02-20T11:21:26Z</time>
      </trkpt>
      <trkpt lat="45.34475" lon="4.75652">
        <ele>144</ele>
        <time>2022-02-20T11:21:46Z</time>
      </trkpt>
      <trkpt lat="45.3448" lon="4.75653">
        <ele>144</ele>
        <time>2022-02-20T11:21:53Z</time>
      </trkpt>
      <trkpt lat="45.34489" lon="4.75672">
        <ele>142</ele>
        <time>2022-02-20T11:22:14Z</time>
      </trkpt>
      <trkpt lat="45.34482" lon="4.75684">
        <ele>142</ele>
        <time>2022-02-20T11:22:29Z</time>
      </trkpt>
      <trkpt lat="45.3447" lon="4.75651">
        <ele>144</ele>
        <time>2022-02-20T11:23:04Z</time>
      </trkpt>
      <trkpt lat="45.3448" lon="4.75657">
        <ele>143</ele>
        <time>2022-02-20T11:23:18Z</time>
      </trkpt>
      <trkpt lat="45.34493" lon="4.75615">
        <ele>148</ele>
        <time>2022-02-20T11:24:01Z</time>
      </trkpt>
      <trkpt lat="45.34499" lon="4.75576">
        <ele>154</ele>
        <time>2022-02-20T11:24:39Z</time>
      </trkpt>
      <trkpt lat="45.34474" lon="4.75566">
        <ele>157</ele>
        <time>2022-02-20T11:25:13Z</time>
      </trkpt>
      <trkpt lat="45.34476" lon="4.75571">
        <ele>156</ele>
        <time>2022-02-20T11:25:19Z</time>
      </trkpt>
      <trkpt lat="45.3445" lon="4.7557">
        <ele>157</ele>
        <time>2022-02-20T11:25:54Z</time>
      </trkpt>
      <trkpt lat="45.344" lon="4.75524">
        <ele>170</ele>
        <time>2022-02-20T11:27:13Z</time>
      </trkpt>
      <trkpt lat="45.34401" lon="4.75529">
        <ele>169</ele>
        <time>2022-02-20T11:27:18Z</time>
      </trkpt>
      <trkpt lat="45.34372" lon="4.7551">
        <ele>180</ele>
        <time>2022-02-20T11:28:00Z</time>
      </trkpt>
      <trkpt lat="45.34359" lon="4.75488">
        <ele>185</ele>
        <time>2022-02-20T11:28:27Z</time>
      </trkpt>
      <trkpt lat="45.34295" lon="4.75428">
        <ele>200</ele>
        <time>2022-02-20T11:30:10Z</time>
      </trkpt>
      <trkpt lat="45.34279" lon="4.75404">
        <ele>204</ele>
        <time>2022-02-20T11:30:41Z</time>
      </trkpt>
      <trkpt lat="45.34299" lon="4.75388">
        <ele>198</ele>
        <time>2022-02-20T11:31:11Z</time>
      </trkpt>
      <trkpt lat="45.34267" lon="4.75382">
        <ele>205</ele>
        <time>2022-02-20T11:31:54Z</time>
      </trkpt>
      <trkpt lat="45.34245" lon="4.75372">
        <ele>210</ele>
        <time>2022-02-20T11:32:25Z</time>
      </trkpt>
      <trkpt lat="45.34226" lon="4.75355">
        <ele>217</ele>
        <time>2022-02-20T11:32:55Z</time>
      </trkpt>
      <trkpt lat="45.34208" lon="4.75317">
        <ele>223</ele>
        <time>2022-02-20T11:33:38Z</time>
      </trkpt>
      <trkpt lat="45.34184" lon="4.75294">
        <ele>235</ele>
        <time>2022-02-20T11:34:17Z</time>
      </trkpt>
      <trkpt lat="45.34171" lon="4.75269">
        <ele>240</ele>
        <time>2022-02-20T11:34:46Z</time>
      </trkpt>
      <trkpt lat="45.34155" lon="4.75267">
        <ele>246</ele>
        <time>2022-02-20T11:35:07Z</time>
      </trkpt>
      <trkpt lat="45.34153" lon="4.75242">
        <ele>246</ele>
        <time>2022-02-20T11:35:31Z</time>
      </trkpt>
      <trkpt lat="45.34119" lon="4.75188">
        <ele>257</ele>
        <time>2022-02-20T11:36:39Z</time>
      </trkpt>
      <trkpt lat="45.34131" lon="4.75164">
        <ele>251</ele>
        <time>2022-02-20T11:37:07Z</time>
      </trkpt>
      <trkpt lat="45.3411" lon="4.75134">
        <ele>261</ele>
        <time>2022-02-20T11:37:46Z</time>
      </trkpt>
      <trkpt lat="45.34105" lon="4.7511">
        <ele>264</ele>
        <time>2022-02-20T11:38:10Z</time>
      </trkpt>
      <trkpt lat="45.34116" lon="4.75117">
        <ele>259</ele>
        <time>2022-02-20T11:38:26Z</time>
      </trkpt>
      <trkpt lat="45.34128" lon="4.75048">
        <ele>259</ele>
        <time>2022-02-20T11:39:33Z</time>
      </trkpt>
      <trkpt lat="45.3412" lon="4.7501">
        <ele>269</ele>
        <time>2022-02-20T11:40:10Z</time>
      </trkpt>
      <trkpt lat="45.34124" lon="4.74985">
        <ele>270</ele>
        <time>2022-02-20T11:40:34Z</time>
      </trkpt>
      <trkpt lat="45.34122" lon="4.74911">
        <ele>280</ele>
        <time>2022-02-20T11:41:43Z</time>
      </trkpt>
      <trkpt lat="45.34128" lon="4.74883">
        <ele>280</ele>
        <time>2022-02-20T11:42:11Z</time>
      </trkpt>
      <trkpt lat="45.341" lon="4.74846">
        <ele>291</ele>
        <time>2022-02-20T11:43:02Z</time>
      </trkpt>
      <trkpt lat="45.34066" lon="4.74758">
        <ele>298</ele>
        <time>2022-02-20T11:44:36Z</time>
      </trkpt>
      <trkpt lat="45.34039" lon="4.74739">
        <ele>303</ele>
        <time>2022-02-20T11:45:16Z</time>
      </trkpt>
      <trkpt lat="45.34016" lon="4.74737">
        <ele>306</ele>
        <time>2022-02-20T11:45:47Z</time>
      </trkpt>
      <trkpt lat="45.34003" lon="4.74711">
        <ele>308</ele>
        <time>2022-02-20T11:46:17Z</time>
      </trkpt>
      <trkpt lat="45.33975" lon="4.74686">
        <ele>313</ele>
        <time>2022-02-20T11:47:01Z</time>
      </trkpt>
      <trkpt lat="45.33953" lon="4.74669">
        <ele>318</ele>
        <time>2022-02-20T11:47:34Z</time>
      </trkpt>
      <trkpt lat="45.33924" lon="4.74658">
        <ele>324</ele>
        <time>2022-02-20T11:48:14Z</time>
      </trkpt>
      <trkpt lat="45.33902" lon="4.74637">
        <ele>326</ele>
        <time>2022-02-20T11:48:50Z</time>
      </trkpt>
      <trkpt lat="45.3388" lon="4.74629">
        <ele>328</ele>
        <time>2022-02-20T11:49:20Z</time>
      </trkpt>
      <trkpt lat="45.33881" lon="4.74612">
        <ele>328</ele>
        <time>2022-02-20T11:49:36Z</time>
      </trkpt>
      <trkpt lat="45.33874" lon="4.74591">
        <ele>329</ele>
        <time>2022-02-20T11:49:58Z</time>
      </trkpt>
      <trkpt lat="45.3382" lon="4.74564">
        <ele>334</ele>
        <time>2022-02-20T11:51:14Z</time>
      </trkpt>
      <trkpt lat="45.33794" lon="4.74546">
        <ele>334</ele>
        <time>2022-02-20T11:51:53Z</time>
      </trkpt>
      <trkpt lat="45.33777" lon="4.74524">
        <ele>335</ele>
        <time>2022-02-20T11:52:23Z</time>
      </trkpt>
      <trkpt lat="45.33748" lon="4.7452">
        <ele>336</ele>
        <time>2022-02-20T11:53:02Z</time>
      </trkpt>
      <trkpt lat="45.33723" lon="4.74496">
        <ele>338</ele>
        <time>2022-02-20T11:53:43Z</time>
      </trkpt>
      <trkpt lat="45.33717" lon="4.74501">
        <ele>338</ele>
        <time>2022-02-20T11:53:52Z</time>
      </trkpt>
      <trkpt lat="45.337" lon="4.74488">
        <ele>338</ele>
        <time>2022-02-20T11:54:18Z</time>
      </trkpt>
      <trkpt lat="45.3368" lon="4.74485">
        <ele>339</ele>
        <time>2022-02-20T11:54:44Z</time>
      </trkpt>
      <trkpt lat="45.3366" lon="4.74504">
        <ele>338</ele>
        <time>2022-02-20T11:55:17Z</time>
      </trkpt>
      <trkpt lat="45.33631" lon="4.74508">
        <ele>337</ele>
        <time>2022-02-20T11:55:55Z</time>
      </trkpt>
      <trkpt lat="45.33614" lon="4.74498">
        <ele>337</ele>
        <time>2022-02-20T11:56:20Z</time>
      </trkpt>
      <trkpt lat="45.33609" lon="4.74481">
        <ele>337</ele>
        <time>2022-02-20T11:56:37Z</time>
      </trkpt>
      <trkpt lat="45.33591" lon="4.74452">
        <ele>336</ele>
        <time>2022-02-20T11:57:14Z</time>
      </trkpt>
      <trkpt lat="45.33585" lon="4.74427">
        <ele>336</ele>
        <time>2022-02-20T11:57:38Z</time>
      </trkpt>
      <trkpt lat="45.33588" lon="4.744">
        <ele>336</ele>
        <time>2022-02-20T11:58:04Z</time>
      </trkpt>
      <trkpt lat="45.336" lon="4.74384">
        <ele>336</ele>
        <time>2022-02-20T11:58:26Z</time>
      </trkpt>
      <trkpt lat="45.33601" lon="4.74362">
        <ele>335</ele>
        <time>2022-02-20T11:58:47Z</time>
      </trkpt>
      <trkpt lat="45.33573" lon="4.7432">
        <ele>332</ele>
        <time>2022-02-20T11:59:41Z</time>
      </trkpt>
      <trkpt lat="45.33571" lon="4.74292">
        <ele>332</ele>
        <time>2022-02-20T12:00:07Z</time>
      </trkpt>
      <trkpt lat="45.33538" lon="4.74226">
        <ele>333</ele>
        <time>2022-02-20T12:01:23Z</time>
      </trkpt>
      <trkpt lat="45.33535" lon="4.74184">
        <ele>334</ele>
        <time>2022-02-20T12:02:03Z</time>
      </trkpt>
      <trkpt lat="45.3354" lon="4.74157">
        <ele>335</ele>
        <time>2022-02-20T12:02:29Z</time>
      </trkpt>
      <trkpt lat="45.3352" lon="4.74121">
        <ele>336</ele>
        <time>2022-02-20T12:03:12Z</time>
      </trkpt>
      <trkpt lat="45.33514" lon="4.74095">
        <ele>337</ele>
        <time>2022-02-20T12:03:38Z</time>
      </trkpt>
      <trkpt lat="45.33499" lon="4.74064">
        <ele>338</ele>
        <time>2022-02-20T12:04:13Z</time>
      </trkpt>
      <trkpt lat="45.3348" lon="4.74011">
        <ele>342</ele>
        <time>2022-02-20T12:05:09Z</time>
      </trkpt>
      <trkpt lat="45.33476" lon="4.73982">
        <ele>343</ele>
        <time>2022-02-20T12:05:37Z</time>
      </trkpt>
      <trkpt lat="45.33485" lon="4.73958">
        <ele>344</ele>
        <time>2022-02-20T12:06:02Z</time>
      </trkpt>
      <trkpt lat="45.33493" lon="4.73905">
        <ele>346</ele>
        <time>2022-02-20T12:06:53Z</time>
      </trkpt>
      <trkpt lat="45.33491" lon="4.73848">
        <ele>346</ele>
        <time>2022-02-20T12:07:47Z</time>
      </trkpt>
      <trkpt lat="45.33477" lon="4.73799">
        <ele>347</ele>
        <time>2022-02-20T12:08:36Z</time>
      </trkpt>
      <trkpt lat="45.33479" lon="4.73778">
        <ele>347</ele>
        <time>2022-02-20T12:08:56Z</time>
      </trkpt>
      <trkpt lat="45.33486" lon="4.73759">
        <ele>347</ele>
        <time>2022-02-20T12:09:16Z</time>
      </trkpt>
      <trkpt lat="45.33479" lon="4.73727">
        <ele>347</ele>
        <time>2022-02-20T12:09:48Z</time>
      </trkpt>
      <trkpt lat="45.33476" lon="4.73678">
        <ele>348</ele>
        <time>2022-02-20T12:10:34Z</time>
      </trkpt>
      <trkpt lat="45.33467" lon="4.7365">
        <ele>348</ele>
        <time>2022-02-20T12:11:03Z</time>
      </trkpt>
      <trkpt lat="45.33477" lon="4.73629">
        <ele>347</ele>
        <time>2022-02-20T12:11:26Z</time>
      </trkpt>
      <trkpt lat="45.3347" lon="4.73621">
        <ele>347</ele>
        <time>2022-02-20T12:11:38Z</time>
      </trkpt>
      <trkpt lat="45.33477" lon="4.73553">
        <ele>346</ele>
        <time>2022-02-20T12:12:43Z</time>
      </trkpt>
      <trkpt lat="45.33467" lon="4.73505">
        <ele>344</ele>
        <time>2022-02-20T12:13:30Z</time>
      </trkpt>
      <trkpt lat="45.3347" lon="4.73473">
        <ele>344</ele>
        <time>2022-02-20T12:14:00Z</time>
      </trkpt>
      <trkpt lat="45.33486" lon="4.73397">
        <ele>345</ele>
        <time>2022-02-20T12:15:15Z</time>
      </trkpt>
      <trkpt lat="45.33487" lon="4.73367">
        <ele>347</ele>
        <time>2022-02-20T12:15:43Z</time>
      </trkpt>
      <trkpt lat="45.33482" lon="4.73317">
        <ele>348</ele>
        <time>2022-02-20T12:16:30Z</time>
      </trkpt>
      <trkpt lat="45.33486" lon="4.73269">
        <ele>348</ele>
        <time>2022-02-20T12:17:15Z</time>
      </trkpt>
      <trkpt lat="45.33476" lon="4.73237">
        <ele>348</ele>
        <time>2022-02-20T12:17:48Z</time>
      </trkpt>
      <trkpt lat="45.33471" lon="4.73167">
        <ele>348</ele>
        <time>2022-02-20T12:18:54Z</time>
      </trkpt>
      <trkpt lat="45.33483" lon="4.73121">
        <ele>348</ele>
        <time>2022-02-20T12:19:40Z</time>
      </trkpt>
      <trkpt lat="45.33486" lon="4.72924">
        <ele>352</ele>
        <time>2022-02-20T12:22:45Z</time>
      </trkpt>
      <trkpt lat="45.33495" lon="4.72822">
        <ele>354</ele>
        <time>2022-02-20T12:24:22Z</time>
      </trkpt>
      <trkpt lat="45.33505" lon="4.72794">
        <ele>354</ele>
        <time>2022-02-20T12:24:51Z</time>
      </trkpt>
      <trkpt lat="45.33498" lon="4.7277">
        <ele>354</ele>
        <time>2022-02-20T12:25:15Z</time>
      </trkpt>
      <trkpt lat="45.33495" lon="4.7272">
        <ele>355</ele>
        <time>2022-02-20T12:26:03Z</time>
      </trkpt>
      <trkpt lat="45.33512" lon="4.72611">
        <ele>357</ele>
        <time>2022-02-20T12:27:47Z</time>
      </trkpt>
      <trkpt lat="45.33514" lon="4.72558">
        <ele>358</ele>
        <time>2022-02-20T12:28:37Z</time>
      </trkpt>
      <trkpt lat="45.33524" lon="4.72474">
        <ele>358</ele>
        <time>2022-02-20T12:29:57Z</time>
      </trkpt>
      <trkpt lat="45.33536" lon="4.72459">
        <ele>357</ele>
        <time>2022-02-20T12:30:18Z</time>
      </trkpt>
      <trkpt lat="45.33543" lon="4.72435">
        <ele>357</ele>
        <time>2022-02-20T12:30:43Z</time>
      </trkpt>
      <trkpt lat="45.33546" lon="4.72283">
        <ele>356</ele>
        <time>2022-02-20T12:33:05Z</time>
      </trkpt>
      <trkpt lat="45.33552" lon="4.72232">
        <ele>357</ele>
        <time>2022-02-20T12:33:54Z</time>
      </trkpt>
      <trkpt lat="45.3355" lon="4.72207">
        <ele>357</ele>
        <time>2022-02-20T12:34:17Z</time>
      </trkpt>
      <trkpt lat="45.33566" lon="4.72183">
        <ele>357</ele>
        <time>2022-02-20T12:34:48Z</time>
      </trkpt>
      <trkpt lat="45.33553" lon="4.7211">
        <ele>358</ele>
        <time>2022-02-20T12:35:59Z</time>
      </trkpt>
      <trkpt lat="45.3355" lon="4.72045">
        <ele>361</ele>
        <time>2022-02-20T12:37:00Z</time>
      </trkpt>
      <trkpt lat="45.33544" lon="4.72016">
        <ele>362</ele>
        <time>2022-02-20T12:37:29Z</time>
      </trkpt>
      <trkpt lat="45.33547" lon="4.71987">
        <ele>364</ele>
        <time>2022-02-20T12:37:56Z</time>
      </trkpt>
      <trkpt lat="45.33563" lon="4.7196">
        <ele>365</ele>
        <time>2022-02-20T12:38:29Z</time>
      </trkpt>
      <trkpt lat="45.33559" lon="4.71938">
        <ele>366</ele>
        <time>2022-02-20T12:38:50Z</time>
      </trkpt>
      <trkpt lat="45.33562" lon="4.71859">
        <ele>369</ele>
        <time>2022-02-20T12:40:05Z</time>
      </trkpt>
      <trkpt lat="45.33576" lon="4.71765">
        <ele>371</ele>
        <time>2022-02-20T12:41:35Z</time>
      </trkpt>
      <trkpt lat="45.33568" lon="4.71744">
        <ele>372</ele>
        <time>2022-02-20T12:41:57Z</time>
      </trkpt>
      <trkpt lat="45.33573" lon="4.71578">
        <ele>377</ele>
        <time>2022-02-20T12:44:33Z</time>
      </trkpt>
      <trkpt lat="45.33555" lon="4.71519">
        <ele>379</ele>
        <time>2022-02-20T12:45:33Z</time>
      </trkpt>
      <trkpt lat="45.33575" lon="4.7146">
        <ele>381</ele>
        <time>2022-02-20T12:46:35Z</time>
      </trkpt>
      <trkpt lat="45.33574" lon="4.71393">
        <ele>384</ele>
        <time>2022-02-20T12:47:38Z</time>
      </trkpt>
      <trkpt lat="45.33578" lon="4.71373">
        <ele>384</ele>
        <time>2022-02-20T12:47:57Z</time>
      </trkpt>
      <trkpt lat="45.33573" lon="4.71349">
        <ele>385</ele>
        <time>2022-02-20T12:48:21Z</time>
      </trkpt>
      <trkpt lat="45.33588" lon="4.71326">
        <ele>387</ele>
        <time>2022-02-20T12:48:50Z</time>
      </trkpt>
      <trkpt lat="45.3359" lon="4.71276">
        <ele>390</ele>
        <time>2022-02-20T12:49:37Z</time>
      </trkpt>
      <trkpt lat="45.33598" lon="4.71255">
        <ele>391</ele>
        <time>2022-02-20T12:50:00Z</time>
      </trkpt>
      <trkpt lat="45.33592" lon="4.71237">
        <ele>393</ele>
        <time>2022-02-20T12:50:18Z</time>
      </trkpt>
      <trkpt lat="45.33594" lon="4.71215">
        <ele>395</ele>
        <time>2022-02-20T12:50:39Z</time>
      </trkpt>
      <trkpt lat="45.33606" lon="4.7116">
        <ele>399</ele>
        <time>2022-02-20T12:51:33Z</time>
      </trkpt>
      <trkpt lat="45.33618" lon="4.71131">
        <ele>401</ele>
        <time>2022-02-20T12:52:05Z</time>
      </trkpt>
      <trkpt lat="45.33617" lon="4.71098">
        <ele>403</ele>
        <time>2022-02-20T12:52:36Z</time>
      </trkpt>
      <trkpt lat="45.33625" lon="4.71046">
        <ele>408</ele>
        <time>2022-02-20T12:53:26Z</time>
      </trkpt>
      <trkpt lat="45.33625" lon="4.70913">
        <ele>423</ele>
        <time>2022-02-20T12:55:30Z</time>
      </trkpt>
      <trkpt lat="45.33641" lon="4.70847">
        <ele>433</ele>
        <time>2022-02-20T12:56:36Z</time>
      </trkpt>
      <trkpt lat="45.33659" lon="4.70804">
        <ele>439</ele>
        <time>2022-02-20T12:57:23Z</time>
      </trkpt>
      <trkpt lat="45.33671" lon="4.7079">
        <ele>440</ele>
        <time>2022-02-20T12:57:43Z</time>
      </trkpt>
      <trkpt lat="45.33676" lon="4.70772">
        <ele>443</ele>
        <time>2022-02-20T12:58:02Z</time>
      </trkpt>
      <trkpt lat="45.33676" lon="4.70749">
        <ele>447</ele>
        <time>2022-02-20T12:58:23Z</time>
      </trkpt>
      <trkpt lat="45.3371" lon="4.70698">
        <ele>453</ele>
        <time>2022-02-20T12:59:29Z</time>
      </trkpt>
      <trkpt lat="45.33726" lon="4.70682">
        <ele>454</ele>
        <time>2022-02-20T12:59:55Z</time>
      </trkpt>
      <trkpt lat="45.33747" lon="4.70641">
        <ele>457</ele>
        <time>2022-02-20T13:00:43Z</time>
      </trkpt>
      <trkpt lat="45.33762" lon="4.7059">
        <ele>462</ele>
        <time>2022-02-20T13:01:35Z</time>
      </trkpt>
      <trkpt lat="45.33764" lon="4.70561">
        <ele>465</ele>
        <time>2022-02-20T13:02:02Z</time>
      </trkpt>
      <trkpt lat="45.33774" lon="4.70541">
        <ele>466</ele>
        <time>2022-02-20T13:02:25Z</time>
      </trkpt>
      <trkpt lat="45.33805" lon="4.70515">
        <ele>468</ele>
        <time>2022-02-20T13:03:13Z</time>
      </trkpt>
      <trkpt lat="45.33795" lon="4.70492">
        <ele>470</ele>
        <time>2022-02-20T13:03:38Z</time>
      </trkpt>
      <trkpt lat="45.33816" lon="4.70473">
        <ele>470</ele>
        <time>2022-02-20T13:04:12Z</time>
      </trkpt>
      <trkpt lat="45.33843" lon="4.70473">
        <ele>469</ele>
        <time>2022-02-20T13:04:48Z</time>
      </trkpt>
      <trkpt lat="45.33869" lon="4.7046">
        <ele>467</ele>
        <time>2022-02-20T13:05:24Z</time>
      </trkpt>
      <trkpt lat="45.33889" lon="4.70444">
        <ele>466</ele>
        <time>2022-02-20T13:05:55Z</time>
      </trkpt>
      <trkpt lat="45.3397" lon="4.70439">
        <ele>455</ele>
        <time>2022-02-20T13:07:43Z</time>
      </trkpt>
      <trkpt lat="45.34059" lon="4.70415">
        <ele>440</ele>
        <time>2022-02-20T13:09:44Z</time>
      </trkpt>
      <trkpt lat="45.34079" lon="4.70389">
        <ele>434</ele>
        <time>2022-02-20T13:10:20Z</time>
      </trkpt>
      <trkpt lat="45.34101" lon="4.70373">
        <ele>430</ele>
        <time>2022-02-20T13:10:53Z</time>
      </trkpt>
      <trkpt lat="45.34122" lon="4.70329">
        <ele>424</ele>
        <time>2022-02-20T13:11:43Z</time>
      </trkpt>
      <trkpt lat="45.34137" lon="4.70316">
        <ele>422</ele>
        <time>2022-02-20T13:12:07Z</time>
      </trkpt>
      <trkpt lat="45.34279" lon="4.70234">
        <ele>402</ele>
        <time>2022-02-20T13:15:31Z</time>
      </trkpt>
      <trkpt lat="45.3432" lon="4.70216">
        <ele>396</ele>
        <time>2022-02-20T13:16:28Z</time>
      </trkpt>
      <trkpt lat="45.34339" lon="4.70222">
        <ele>394</ele>
        <time>2022-02-20T13:16:54Z</time>
      </trkpt>
      <trkpt lat="45.34381" lon="4.70211">
        <ele>389</ele>
        <time>2022-02-20T13:17:51Z</time>
      </trkpt>
      <trkpt lat="45.34404" lon="4.70211">
        <ele>387</ele>
        <time>2022-02-20T13:18:22Z</time>
      </trkpt>
      <trkpt lat="45.34425" lon="4.70216">
        <ele>385</ele>
        <time>2022-02-20T13:18:50Z</time>
      </trkpt>
      <trkpt lat="45.34427" lon="4.7021">
        <ele>385</ele>
        <time>2022-02-20T13:18:57Z</time>
      </trkpt>
      <trkpt lat="45.34461" lon="4.70208">
        <ele>381</ele>
        <time>2022-02-20T13:19:42Z</time>
      </trkpt>
      <trkpt lat="45.34495" lon="4.70195">
        <ele>378</ele>
        <time>2022-02-20T13:20:29Z</time>
      </trkpt>
      <trkpt lat="45.34527" lon="4.70193">
        <ele>373</ele>
        <time>2022-02-20T13:21:12Z</time>
      </trkpt>
      <trkpt lat="45.34538" lon="4.70207">
        <ele>372</ele>
        <time>2022-02-20T13:21:31Z</time>
      </trkpt>
      <trkpt lat="45.3456" lon="4.70216">
        <ele>369</ele>
        <time>2022-02-20T13:22:02Z</time>
      </trkpt>
      <trkpt lat="45.34632" lon="4.70385">
        <ele>367</ele>
        <time>2022-02-20T13:25:07Z</time>
      </trkpt>
      <trkpt lat="45.34648" lon="4.70466">
        <ele>368</ele>
        <time>2022-02-20T13:26:26Z</time>
      </trkpt>
      <trkpt lat="45.34663" lon="4.70497">
        <ele>368</ele>
        <time>2022-02-20T13:27:02Z</time>
      </trkpt>
      <trkpt lat="45.34721" lon="4.7052">
        <ele>363</ele>
        <time>2022-02-20T13:28:22Z</time>
      </trkpt>
      <trkpt lat="45.34745" lon="4.70537">
        <ele>362</ele>
        <time>2022-02-20T13:28:58Z</time>
      </trkpt>
      <trkpt lat="45.34791" lon="4.70556">
        <ele>360</ele>
        <time>2022-02-20T13:30:02Z</time>
      </trkpt>
      <trkpt lat="45.34812" lon="4.7057">
        <ele>359</ele>
        <time>2022-02-20T13:30:33Z</time>
      </trkpt>
      <trkpt lat="45.34851" lon="4.70576">
        <ele>357</ele>
        <time>2022-02-20T13:31:25Z</time>
      </trkpt>
      <trkpt lat="45.34889" lon="4.70541">
        <ele>351</ele>
        <time>2022-02-20T13:32:25Z</time>
      </trkpt>
      <trkpt lat="45.34929" lon="4.70511">
        <ele>345</ele>
        <time>2022-02-20T13:33:26Z</time>
      </trkpt>
      <trkpt lat="45.34956" lon="4.70507">
        <ele>340</ele>
        <time>2022-02-20T13:34:02Z</time>
      </trkpt>
      <trkpt lat="45.34962" lon="4.7053">
        <ele>340</ele>
        <time>2022-02-20T13:34:25Z</time>
      </trkpt>
      <trkpt lat="45.34969" lon="4.70573">
        <ele>342</ele>
        <time>2022-02-20T13:35:06Z</time>
      </trkpt>
      <trkpt lat="45.34968" lon="4.70606">
        <ele>343</ele>
        <time>2022-02-20T13:35:37Z</time>
      </trkpt>
      <trkpt lat="45.34955" lon="4.70667">
        <ele>347</ele>
        <time>2022-02-20T13:36:37Z</time>
      </trkpt>
      <trkpt lat="45.34961" lon="4.70684">
        <ele>346</ele>
        <time>2022-02-20T13:36:55Z</time>
      </trkpt>
      <trkpt lat="45.34965" lon="4.70907">
        <ele>346</ele>
        <time>2022-02-20T13:40:24Z</time>
      </trkpt>
      <trkpt lat="45.34949" lon="4.70926">
        <ele>349</ele>
        <time>2022-02-20T13:40:52Z</time>
      </trkpt>
      <trkpt lat="45.34931" lon="4.70995">
        <ele>352</ele>
        <time>2022-02-20T13:42:01Z</time>
      </trkpt>
      <trkpt lat="45.34914" lon="4.71013">
        <ele>356</ele>
        <time>2022-02-20T13:42:29Z</time>
      </trkpt>
      <trkpt lat="45.34881" lon="4.71118">
        <ele>358</ele>
        <time>2022-02-20T13:44:17Z</time>
      </trkpt>
      <trkpt lat="45.34863" lon="4.71137">
        <ele>360</ele>
        <time>2022-02-20T13:44:47Z</time>
      </trkpt>
      <trkpt lat="45.34866" lon="4.71166">
        <ele>360</ele>
        <time>2022-02-20T13:45:14Z</time>
      </trkpt>
      <trkpt lat="45.34855" lon="4.71175">
        <ele>361</ele>
        <time>2022-02-20T13:45:31Z</time>
      </trkpt>
      <trkpt lat="45.34865" lon="4.71232">
        <ele>360</ele>
        <time>2022-02-20T13:46:27Z</time>
      </trkpt>
      <trkpt lat="45.34909" lon="4.7133">
        <ele>361</ele>
        <time>2022-02-20T13:48:16Z</time>
      </trkpt>
      <trkpt lat="45.34899" lon="4.71364">
        <ele>362</ele>
        <time>2022-02-20T13:48:50Z</time>
      </trkpt>
      <trkpt lat="45.34897" lon="4.71409">
        <ele>364</ele>
        <time>2022-02-20T13:49:32Z</time>
      </trkpt>
      <trkpt lat="45.34899" lon="4.71445">
        <ele>364</ele>
        <time>2022-02-20T13:50:06Z</time>
      </trkpt>
      <trkpt lat="45.34911" lon="4.71464">
        <ele>363</ele>
        <time>2022-02-20T13:50:30Z</time>
      </trkpt>
      <trkpt lat="45.34915" lon="4.71516">
        <ele>361</ele>
        <time>2022-02-20T13:51:19Z</time>
      </trkpt>
      <trkpt lat="45.34893" lon="4.71645">
        <ele>357</ele>
        <time>2022-02-20T13:53:24Z</time>
      </trkpt>
      <trkpt lat="45.34894" lon="4.71702">
        <ele>354</ele>
        <time>2022-02-20T13:54:17Z</time>
      </trkpt>
      <trkpt lat="45.34941" lon="4.71981">
        <ele>352</ele>
        <time>2022-02-20T13:58:46Z</time>
      </trkpt>
      <trkpt lat="45.34937" lon="4.72035">
        <ele>352</ele>
        <time>2022-02-20T13:59:37Z</time>
      </trkpt>
      <trkpt lat="45.34887" lon="4.72056">
        <ele>353</ele>
        <time>2022-02-20T14:00:47Z</time>
      </trkpt>
      <trkpt lat="45.34863" lon="4.72059">
        <ele>353</ele>
        <time>2022-02-20T14:01:19Z</time>
      </trkpt>
      <trkpt lat="45.34838" lon="4.7207">
        <ele>353</ele>
        <time>2022-02-20T14:01:54Z</time>
      </trkpt>
      <trkpt lat="45.34796" lon="4.72078">
        <ele>353</ele>
        <time>2022-02-20T14:02:50Z</time>
      </trkpt>
      <trkpt lat="45.34776" lon="4.72088">
        <ele>352</ele>
        <time>2022-02-20T14:03:19Z</time>
      </trkpt>
      <trkpt lat="45.34761" lon="4.72106">
        <ele>352</ele>
        <time>2022-02-20T14:03:45Z</time>
      </trkpt>
      <trkpt lat="45.34755" lon="4.72137">
        <ele>351</ele>
        <time>2022-02-20T14:04:15Z</time>
      </trkpt>
      <trkpt lat="45.34755" lon="4.72175">
        <ele>351</ele>
        <time>2022-02-20T14:04:51Z</time>
      </trkpt>
      <trkpt lat="45.3475" lon="4.72209">
        <ele>349</ele>
        <time>2022-02-20T14:05:23Z</time>
      </trkpt>
      <trkpt lat="45.3474" lon="4.72241">
        <ele>347</ele>
        <time>2022-02-20T14:05:56Z</time>
      </trkpt>
      <trkpt lat="45.34739" lon="4.72276">
        <ele>344</ele>
        <time>2022-02-20T14:06:29Z</time>
      </trkpt>
      <trkpt lat="45.34743" lon="4.72314">
        <ele>342</ele>
        <time>2022-02-20T14:07:05Z</time>
      </trkpt>
      <trkpt lat="45.34774" lon="4.7239">
        <ele>338</ele>
        <time>2022-02-20T14:08:27Z</time>
      </trkpt>
      <trkpt lat="45.34771" lon="4.72461">
        <ele>331</ele>
        <time>2022-02-20T14:09:34Z</time>
      </trkpt>
      <trkpt lat="45.34774" lon="4.72486">
        <ele>329</ele>
        <time>2022-02-20T14:09:58Z</time>
      </trkpt>
      <trkpt lat="45.34764" lon="4.72507">
        <ele>326</ele>
        <time>2022-02-20T14:10:22Z</time>
      </trkpt>
      <trkpt lat="45.34761" lon="4.72538">
        <ele>322</ele>
        <time>2022-02-20T14:10:51Z</time>
      </trkpt>
      <trkpt lat="45.34752" lon="4.72573">
        <ele>317</ele>
        <time>2022-02-20T14:11:26Z</time>
      </trkpt>
      <trkpt lat="45.34756" lon="4.72606">
        <ele>315</ele>
        <time>2022-02-20T14:11:57Z</time>
      </trkpt>
      <trkpt lat="45.34735" lon="4.72669">
        <ele>313</ele>
        <time>2022-02-20T14:13:03Z</time>
      </trkpt>
      <trkpt lat="45.34712" lon="4.72669">
        <ele>314</ele>
        <time>2022-02-20T14:13:34Z</time>
      </trkpt>
      <trkpt lat="45.34695" lon="4.72685">
        <ele>315</ele>
        <time>2022-02-20T14:14:01Z</time>
      </trkpt>
      <trkpt lat="45.34687" lon="4.72704">
        <ele>316</ele>
        <time>2022-02-20T14:14:22Z</time>
      </trkpt>
      <trkpt lat="45.34693" lon="4.72718">
        <ele>315</ele>
        <time>2022-02-20T14:14:37Z</time>
      </trkpt>
      <trkpt lat="45.34676" lon="4.72832">
        <ele>320</ele>
        <time>2022-02-20T14:16:26Z</time>
      </trkpt>
      <trkpt lat="45.34692" lon="4.72882">
        <ele>320</ele>
        <time>2022-02-20T14:17:18Z</time>
      </trkpt>
      <trkpt lat="45.34661" lon="4.72842">
        <ele>322</ele>
        <time>2022-02-20T14:18:14Z</time>
      </trkpt>
      <trkpt lat="45.34648" lon="4.72837">
        <ele>323</ele>
        <time>2022-02-20T14:18:32Z</time>
      </trkpt>
      <trkpt lat="45.34622" lon="4.72898">
        <ele>325</ele>
        <time>2022-02-20T14:19:38Z</time>
      </trkpt>
      <trkpt lat="45.34522" lon="4.72987">
        <ele>332</ele>
        <time>2022-02-20T14:22:16Z</time>
      </trkpt>
      <trkpt lat="45.34512" lon="4.7301">
        <ele>332</ele>
        <time>2022-02-20T14:22:41Z</time>
      </trkpt>
      <trkpt lat="45.34509" lon="4.73036">
        <ele>331</ele>
        <time>2022-02-20T14:23:06Z</time>
      </trkpt>
      <trkpt lat="45.34471" lon="4.73072">
        <ele>332</ele>
        <time>2022-02-20T14:24:07Z</time>
      </trkpt>
      <trkpt lat="45.34451" lon="4.73101">
        <ele>331</ele>
        <time>2022-02-20T14:24:45Z</time>
      </trkpt>
      <trkpt lat="45.34413" lon="4.73139">
        <ele>331</ele>
        <time>2022-02-20T14:25:47Z</time>
      </trkpt>
      <trkpt lat="45.34379" lon="4.73189">
        <ele>329</ele>
        <time>2022-02-20T14:26:52Z</time>
      </trkpt>
      <trkpt lat="45.34343" lon="4.73221">
        <ele>328</ele>
        <time>2022-02-20T14:27:49Z</time>
      </trkpt>
      <trkpt lat="45.34306" lon="4.7324">
        <ele>327</ele>
        <time>2022-02-20T14:28:41Z</time>
      </trkpt>
      <trkpt lat="45.34288" lon="4.73265">
        <ele>325</ele>
        <time>2022-02-20T14:29:15Z</time>
      </trkpt>
      <trkpt lat="45.34258" lon="4.73278">
        <ele>325</ele>
        <time>2022-02-20T14:29:57Z</time>
      </trkpt>
      <trkpt lat="45.34252" lon="4.73324">
        <ele>324</ele>
        <time>2022-02-20T14:30:41Z</time>
      </trkpt>
      <trkpt lat="45.34189" lon="4.73468">
        <ele>322</ele>
        <time>2022-02-20T14:33:20Z</time>
      </trkpt>
      <trkpt lat="45.34157" lon="4.73511">
        <ele>321</ele>
        <time>2022-02-20T14:34:18Z</time>
      </trkpt>
      <trkpt lat="45.34116" lon="4.73544">
        <ele>318</ele>
        <time>2022-02-20T14:35:21Z</time>
      </trkpt>
      <trkpt lat="45.34099" lon="4.73544">
        <ele>317</ele>
        <time>2022-02-20T14:35:44Z</time>
      </trkpt>
      <trkpt lat="45.34081" lon="4.73561">
        <ele>316</ele>
        <time>2022-02-20T14:36:13Z</time>
      </trkpt>
      <trkpt lat="45.34067" lon="4.73615">
        <ele>314</ele>
        <time>2022-02-20T14:37:07Z</time>
      </trkpt>
      <trkpt lat="45.34055" lon="4.73642">
        <ele>314</ele>
        <time>2022-02-20T14:37:37Z</time>
      </trkpt>
      <trkpt lat="45.3401" lon="4.73706">
        <ele>316</ele>
        <time>2022-02-20T14:39:02Z</time>
      </trkpt>
      <trkpt lat="45.33998" lon="4.73729">
        <ele>316</ele>
        <time>2022-02-20T14:39:29Z</time>
      </trkpt>
      <trkpt lat="45.33967" lon="4.73753">
        <ele>319</ele>
        <time>2022-02-20T14:40:16Z</time>
      </trkpt>
      <trkpt lat="45.33943" lon="4.73824">
        <ele>320</ele>
        <time>2022-02-20T14:41:30Z</time>
      </trkpt>
      <trkpt lat="45.33921" lon="4.73853">
        <ele>322</ele>
        <time>2022-02-20T14:42:10Z</time>
      </trkpt>
      <trkpt lat="45.33896" lon="4.73902">
        <ele>323</ele>
        <time>2022-02-20T14:43:06Z</time>
      </trkpt>
      <trkpt lat="45.33904" lon="4.73941">
        <ele>323</ele>
        <time>2022-02-20T14:43:44Z</time>
      </trkpt>
      <trkpt lat="45.33893" lon="4.73966">
        <ele>324</ele>
        <time>2022-02-20T14:44:12Z</time>
      </trkpt>
      <trkpt lat="45.33891" lon="4.74009">
        <ele>325</ele>
        <time>2022-02-20T14:44:53Z</time>
      </trkpt>
      <trkpt lat="45.33881" lon="4.74031">
        <ele>326</ele>
        <time>2022-02-20T14:45:17Z</time>
      </trkpt>
      <trkpt lat="45.33866" lon="4.74047">
        <ele>326</ele>
        <time>2022-02-20T14:45:42Z</time>
      </trkpt>
      <trkpt lat="45.33892" lon="4.74044">
        <ele>325</ele>
        <time>2022-02-20T14:46:17Z</time>
      </trkpt>
      <trkpt lat="45.33936" lon="4.7403">
        <ele>323</ele>
        <time>2022-02-20T14:47:17Z</time>
      </trkpt>
      <trkpt lat="45.33979" lon="4.74012">
        <ele>320</ele>
        <time>2022-02-20T14:48:17Z</time>
      </trkpt>
      <trkpt lat="45.34006" lon="4.7399">
        <ele>317</ele>
        <time>2022-02-20T14:48:58Z</time>
      </trkpt>
      <trkpt lat="45.34037" lon="4.73987">
        <ele>316</ele>
        <time>2022-02-20T14:49:40Z</time>
      </trkpt>
      <trkpt lat="45.34077" lon="4.73971">
        <ele>314</ele>
        <time>2022-02-20T14:50:35Z</time>
      </trkpt>
      <trkpt lat="45.34083" lon="4.73952">
        <ele>312</ele>
        <time>2022-02-20T14:50:55Z</time>
      </trkpt>
      <trkpt lat="45.34103" lon="4.73927">
        <ele>310</ele>
        <time>2022-02-20T14:51:30Z</time>
      </trkpt>
      <trkpt lat="45.3412" lon="4.73917">
        <ele>308</ele>
        <time>2022-02-20T14:51:55Z</time>
      </trkpt>
      <trkpt lat="45.34137" lon="4.73916">
        <ele>307</ele>
        <time>2022-02-20T14:52:18Z</time>
      </trkpt>
      <trkpt lat="45.3415" lon="4.73902">
        <ele>307</ele>
        <time>2022-02-20T14:52:39Z</time>
      </trkpt>
      <trkpt lat="45.34198" lon="4.73871">
        <ele>304</ele>
        <time>2022-02-20T14:53:50Z</time>
      </trkpt>
      <trkpt lat="45.34209" lon="4.73883">
        <ele>303</ele>
        <time>2022-02-20T14:54:08Z</time>
      </trkpt>
      <trkpt lat="45.34235" lon="4.73881">
        <ele>302</ele>
        <time>2022-02-20T14:54:43Z</time>
      </trkpt>
      <trkpt lat="45.34258" lon="4.7387">
        <ele>303</ele>
        <time>2022-02-20T14:55:15Z</time>
      </trkpt>
      <trkpt lat="45.34318" lon="4.73878">
        <ele>302</ele>
        <time>2022-02-20T14:56:36Z</time>
      </trkpt>
      <trkpt lat="45.34337" lon="4.73866">
        <ele>303</ele>
        <time>2022-02-20T14:57:04Z</time>
      </trkpt>
      <trkpt lat="45.34392" lon="4.73844">
        <ele>304</ele>
        <time>2022-02-20T14:58:20Z</time>
      </trkpt>
      <trkpt lat="45.34394" lon="4.73834">
        <ele>304</ele>
        <time>2022-02-20T14:58:30Z</time>
      </trkpt>
      <trkpt lat="45.34405" lon="4.7382">
        <ele>305</ele>
        <time>2022-02-20T14:58:49Z</time>
      </trkpt>
      <trkpt lat="45.34418" lon="4.73783">
        <ele>308</ele>
        <time>2022-02-20T14:59:28Z</time>
      </trkpt>
      <trkpt lat="45.34442" lon="4.73785">
        <ele>308</ele>
        <time>2022-02-20T15:00:00Z</time>
      </trkpt>
      <trkpt lat="45.34464" lon="4.73794">
        <ele>307</ele>
        <time>2022-02-20T15:00:31Z</time>
      </trkpt>
      <trkpt lat="45.34476" lon="4.73811">
        <ele>307</ele>
        <time>2022-02-20T15:00:53Z</time>
      </trkpt>
      <trkpt lat="45.34481" lon="4.73841">
        <ele>306</ele>
        <time>2022-02-20T15:01:22Z</time>
      </trkpt>
      <trkpt lat="45.3451" lon="4.73882">
        <ele>309</ele>
        <time>2022-02-20T15:02:17Z</time>
      </trkpt>
      <trkpt lat="45.34541" lon="4.73913">
        <ele>311</ele>
        <time>2022-02-20T15:03:07Z</time>
      </trkpt>
      <trkpt lat="45.34551" lon="4.73932">
        <ele>312</ele>
        <time>2022-02-20T15:03:30Z</time>
      </trkpt>
      <trkpt lat="45.34547" lon="4.73957">
        <ele>313</ele>
        <time>2022-02-20T15:03:54Z</time>
      </trkpt>
      <trkpt lat="45.34551" lon="4.74008">
        <ele>314</ele>
        <time>2022-02-20T15:04:42Z</time>
        <extensions>
          <visugpx:TrkExtension xmlns:visugpx="https://www.visugpx.com/editgpx/">
            <visugpx:node>1</visugpx:node>
            </visugpx:TrkExtension>
        </extensions>
      </trkpt>
      <trkpt lat="45.3455" lon="4.74005">
        <ele>314.7</ele>
      </trkpt>
      <trkpt lat="45.34547" lon="4.74005">
        <ele>314.4</ele>
      </trkpt>
      <trkpt lat="45.34544" lon="4.74006">
        <ele>314.1</ele>
      </trkpt>
      <trkpt lat="45.3454" lon="4.74009">
        <ele>314</ele>
      </trkpt>
      <trkpt lat="45.34539" lon="4.74019">
        <ele>314.7</ele>
      </trkpt>
      <trkpt lat="45.34533" lon="4.74036">
        <ele>315.5</ele>
      </trkpt>
      <trkpt lat="45.34533" lon="4.7404">
        <ele>315.6</ele>
      </trkpt>
      <trkpt lat="45.34533" lon="4.74052">
        <ele>316.1</ele>
      </trkpt>
      <trkpt lat="45.34532" lon="4.74064">
        <ele>316.2</ele>
      </trkpt>
      <trkpt lat="45.34531" lon="4.74072">
        <ele>316.1</ele>
      </trkpt>
      <trkpt lat="45.34531" lon="4.74078">
        <ele>316.1</ele>
      </trkpt>
      <trkpt lat="45.34531" lon="4.74084">
        <ele>316.1</ele>
        <extensions>
          <visugpx:TrkExtension xmlns:visugpx="https://www.visugpx.com/editgpx/">
            <visugpx:node>2</visugpx:node>
            </visugpx:TrkExtension>
        </extensions>
      </trkpt>
      <trkpt lat="45.34531" lon="4.74087">
        <ele>316.1</ele>
      </trkpt>
      <trkpt lat="45.3453" lon="4.74091">
        <ele>316.1</ele>
      </trkpt>
      <trkpt lat="45.3453" lon="4.74105">
        <ele>316.1</ele>
      </trkpt>
      <trkpt lat="45.3453" lon="4.74119">
        <ele>315.8</ele>
      </trkpt>
      <trkpt lat="45.34531" lon="4.7413">
        <ele>315.4</ele>
      </trkpt>
      <trkpt lat="45.34531" lon="4.74146">
        <ele>314.7</ele>
      </trkpt>
      <trkpt lat="45.34532" lon="4.74159">
        <ele>314.3</ele>
      </trkpt>
      <trkpt lat="45.34532" lon="4.74171">
        <ele>313.7</ele>
      </trkpt>
      <trkpt lat="45.34533" lon="4.74174">
        <ele>313.6</ele>
      </trkpt>
      <trkpt lat="45.34535" lon="4.74182">
        <ele>313.2</ele>
      </trkpt>
      <trkpt lat="45.34537" lon="4.74193">
        <ele>312.7</ele>
      </trkpt>
      <trkpt lat="45.34541" lon="4.74206">
        <ele>312.5</ele>
      </trkpt>
      <trkpt lat="45.34543" lon="4.74218">
        <ele>312.3</ele>
      </trkpt>
      <trkpt lat="45.34544" lon="4.74223">
        <ele>312.3</ele>
      </trkpt>
      <trkpt lat="45.34545" lon="4.74229">
        <ele>312.1</ele>
      </trkpt>
      <trkpt lat="45.34546" lon="4.7424">
        <ele>311.5</ele>
      </trkpt>
      <trkpt lat="45.34546" lon="4.74253">
        <ele>311</ele>
      </trkpt>
      <trkpt lat="45.34545" lon="4.74264">
        <ele>310.9</ele>
      </trkpt>
      <trkpt lat="45.34545" lon="4.74279">
        <ele>311.1</ele>
      </trkpt>
      <trkpt lat="45.34544" lon="4.74292">
        <ele>311.1</ele>
      </trkpt>
      <trkpt lat="45.34543" lon="4.74302">
        <ele>311.1</ele>
      </trkpt>
      <trkpt lat="45.34541" lon="4.74314">
        <ele>311.4</ele>
      </trkpt>
      <trkpt lat="45.34539" lon="4.74324">
        <ele>311.7</ele>
      </trkpt>
      <trkpt lat="45.34539" lon="4.74327">
        <ele>311.8</ele>
      </trkpt>
      <trkpt lat="45.34538" lon="4.74335">
        <ele>312.1</ele>
      </trkpt>
      <trkpt lat="45.34537" lon="4.7435">
        <ele>312</ele>
      </trkpt>
      <trkpt lat="45.34537" lon="4.74368">
        <ele>311.8</ele>
      </trkpt>
      <trkpt lat="45.34537" lon="4.74375">
        <ele>311.7</ele>
      </trkpt>
      <trkpt lat="45.34537" lon="4.74388">
        <ele>311.4</ele>
      </trkpt>
      <trkpt lat="45.34538" lon="4.74405">
        <ele>311.2</ele>
      </trkpt>
      <trkpt lat="45.34539" lon="4.74421">
        <ele>310.8</ele>
      </trkpt>
      <trkpt lat="45.34541" lon="4.74435">
        <ele>310.3</ele>
      </trkpt>
      <trkpt lat="45.34541" lon="4.74453">
        <ele>309.5</ele>
      </trkpt>
      <trkpt lat="45.34541" lon="4.74466">
        <ele>308.8</ele>
      </trkpt>
      <trkpt lat="45.34541" lon="4.74471">
        <ele>308.5</ele>
      </trkpt>
      <trkpt lat="45.34541" lon="4.74494">
        <ele>307.7</ele>
      </trkpt>
      <trkpt lat="45.3454" lon="4.74514">
        <ele>306.7</ele>
      </trkpt>
      <trkpt lat="45.34539" lon="4.74519">
        <ele>306.4</ele>
      </trkpt>
      <trkpt lat="45.34539" lon="4.74524">
        <ele>306.2</ele>
        <extensions>
          <visugpx:TrkExtension xmlns:visugpx="https://www.visugpx.com/editgpx/">
            <visugpx:node>3</visugpx:node>
            </visugpx:TrkExtension>
        </extensions>
      </trkpt>
      <trkpt lat="45.34538" lon="4.74545">
        <ele>305</ele>
      </trkpt>
      <trkpt lat="45.34536" lon="4.74562">
        <ele>304.2</ele>
      </trkpt>
      <trkpt lat="45.3453" lon="4.74594">
        <ele>303.6</ele>
      </trkpt>
      <trkpt lat="45.34524" lon="4.74614">
        <ele>302.5</ele>
      </trkpt>
      <trkpt lat="45.34522" lon="4.74621">
        <ele>301.9</ele>
      </trkpt>
      <trkpt lat="45.34522" lon="4.74626">
        <ele>301.6</ele>
      </trkpt>
      <trkpt lat="45.3452" lon="4.74636">
        <ele>300.9</ele>
      </trkpt>
      <trkpt lat="45.34516" lon="4.74646">
        <ele>300.3</ele>
      </trkpt>
      <trkpt lat="45.34514" lon="4.74656">
        <ele>299.9</ele>
      </trkpt>
      <trkpt lat="45.34512" lon="4.74669">
        <ele>299.5</ele>
      </trkpt>
      <trkpt lat="45.34511" lon="4.74681">
        <ele>299.7</ele>
      </trkpt>
      <trkpt lat="45.34509" lon="4.74691">
        <ele>299.9</ele>
      </trkpt>
      <trkpt lat="45.34507" lon="4.74699">
        <ele>300</ele>
      </trkpt>
      <trkpt lat="45.34505" lon="4.74709">
        <ele>299.9</ele>
      </trkpt>
      <trkpt lat="45.34504" lon="4.74722">
        <ele>299.9</ele>
      </trkpt>
      <trkpt lat="45.34502" lon="4.74733">
        <ele>299.5</ele>
      </trkpt>
      <trkpt lat="45.34501" lon="4.74743">
        <ele>299.2</ele>
      </trkpt>
      <trkpt lat="45.34497" lon="4.74751">
        <ele>298.6</ele>
      </trkpt>
      <trkpt lat="45.34496" lon="4.74754">
        <ele>298.3</ele>
      </trkpt>
      <trkpt lat="45.34494" lon="4.74759">
        <ele>297.8</ele>
      </trkpt>
      <trkpt lat="45.34491" lon="4.74768">
        <ele>297.2</ele>
      </trkpt>
      <trkpt lat="45.34486" lon="4.74777">
        <ele>296.5</ele>
      </trkpt>
      <trkpt lat="45.34483" lon="4.74784">
        <ele>296.3</ele>
      </trkpt>
      <trkpt lat="45.34479" lon="4.74792">
        <ele>296.1</ele>
      </trkpt>
      <trkpt lat="45.34476" lon="4.74802">
        <ele>296</ele>
      </trkpt>
      <trkpt lat="45.34474" lon="4.74806">
        <ele>296</ele>
      </trkpt>
      <trkpt lat="45.34474" lon="4.74807">
        <ele>296</ele>
      </trkpt>
      <trkpt lat="45.34472" lon="4.74812">
        <ele>296</ele>
      </trkpt>
      <trkpt lat="45.34467" lon="4.74825">
        <ele>295.9</ele>
        <extensions>
          <visugpx:TrkExtension xmlns:visugpx="https://www.visugpx.com/editgpx/">
            <visugpx:node>4</visugpx:node>
            </visugpx:TrkExtension>
        </extensions>
      </trkpt>
      <trkpt lat="45.34463" lon="4.74836">
        <ele>296.1</ele>
      </trkpt>
      <trkpt lat="45.34461" lon="4.74855">
        <ele>296.8</ele>
      </trkpt>
      <trkpt lat="45.34461" lon="4.74864">
        <ele>297.2</ele>
      </trkpt>
      <trkpt lat="45.3446" lon="4.74873">
        <ele>297.7</ele>
      </trkpt>
      <trkpt lat="45.3446" lon="4.74883">
        <ele>298.2</ele>
      </trkpt>
      <trkpt lat="45.3446" lon="4.74894">
        <ele>298.8</ele>
      </trkpt>
      <trkpt lat="45.34462" lon="4.74905">
        <ele>299.4</ele>
      </trkpt>
      <trkpt lat="45.34463" lon="4.74917">
        <ele>300</ele>
      </trkpt>
      <trkpt lat="45.34464" lon="4.74928">
        <ele>301.1</ele>
      </trkpt>
      <trkpt lat="45.34464" lon="4.74941">
        <ele>302.4</ele>
      </trkpt>
      <trkpt lat="45.34464" lon="4.74952">
        <ele>303.6</ele>
      </trkpt>
      <trkpt lat="45.34463" lon="4.74962">
        <ele>304.8</ele>
      </trkpt>
      <trkpt lat="45.34462" lon="4.74973">
        <ele>305.9</ele>
      </trkpt>
      <trkpt lat="45.34462" lon="4.74982">
        <ele>306.3</ele>
      </trkpt>
      <trkpt lat="45.3446" lon="4.74988">
        <ele>306.3</ele>
      </trkpt>
      <trkpt lat="45.34456" lon="4.74995">
        <ele>305.9</ele>
      </trkpt>
      <trkpt lat="45.34452" lon="4.75001">
        <ele>305.3</ele>
      </trkpt>
      <trkpt lat="45.34451" lon="4.75007">
        <ele>304.9</ele>
      </trkpt>
      <trkpt lat="45.34449" lon="4.75016">
        <ele>304.1</ele>
      </trkpt>
      <trkpt lat="45.34447" lon="4.75024">
        <ele>303.5</ele>
      </trkpt>
      <trkpt lat="45.34446" lon="4.75032">
        <ele>302.8</ele>
      </trkpt>
      <trkpt lat="45.34446" lon="4.75043">
        <ele>301.6</ele>
      </trkpt>
      <trkpt lat="45.34448" lon="4.75059">
        <ele>300</ele>
      </trkpt>
      <trkpt lat="45.34448" lon="4.75072">
        <ele>298.1</ele>
      </trkpt>
      <trkpt lat="45.34448" lon="4.7508">
        <ele>297</ele>
        <extensions>
          <visugpx:TrkExtension xmlns:visugpx="https://www.visugpx.com/editgpx/">
            <visugpx:node>5</visugpx:node>
            </visugpx:TrkExtension>
        </extensions>
      </trkpt>
      <trkpt lat="45.34451" lon="4.75087">
        <ele>296.3</ele>
      </trkpt>
      <trkpt lat="45.34454" lon="4.75094">
        <ele>295.5</ele>
      </trkpt>
      <trkpt lat="45.34458" lon="4.751">
        <ele>295</ele>
      </trkpt>
      <trkpt lat="45.34461" lon="4.75107">
        <ele>294.1</ele>
      </trkpt>
      <trkpt lat="45.34466" lon="4.75115">
        <ele>293.4</ele>
      </trkpt>
      <trkpt lat="45.3447" lon="4.75123">
        <ele>292.6</ele>
      </trkpt>
      <trkpt lat="45.3447" lon="4.75128">
        <ele>291.7</ele>
      </trkpt>
      <trkpt lat="45.34469" lon="4.75131">
        <ele>291</ele>
      </trkpt>
      <trkpt lat="45.34466" lon="4.75134">
        <ele>290.2</ele>
      </trkpt>
      <trkpt lat="45.34461" lon="4.75138">
        <ele>288.9</ele>
      </trkpt>
      <trkpt lat="45.34457" lon="4.75142">
        <ele>287.9</ele>
      </trkpt>
      <trkpt lat="45.34453" lon="4.75147">
        <ele>286.8</ele>
      </trkpt>
      <trkpt lat="45.34448" lon="4.75152">
        <ele>285.5</ele>
      </trkpt>
      <trkpt lat="45.34444" lon="4.75154">
        <ele>284.7</ele>
      </trkpt>
      <trkpt lat="45.34442" lon="4.75155">
        <ele>284</ele>
      </trkpt>
      <trkpt lat="45.34437" lon="4.75153">
        <ele>282.9</ele>
      </trkpt>
      <trkpt lat="45.34431" lon="4.7515">
        <ele>282</ele>
      </trkpt>
      <trkpt lat="45.34427" lon="4.75146">
        <ele>282</ele>
      </trkpt>
      <trkpt lat="45.34423" lon="4.75142">
        <ele>282.3</ele>
      </trkpt>
      <trkpt lat="45.34419" lon="4.75137">
        <ele>282.7</ele>
      </trkpt>
      <trkpt lat="45.34416" lon="4.75131">
        <ele>283</ele>
      </trkpt>
      <trkpt lat="45.34411" lon="4.75126">
        <ele>282.5</ele>
      </trkpt>
      <trkpt lat="45.34407" lon="4.75122">
        <ele>282.3</ele>
      </trkpt>
      <trkpt lat="45.34404" lon="4.75118">
        <ele>282.4</ele>
      </trkpt>
      <trkpt lat="45.34401" lon="4.75115">
        <ele>282.4</ele>
      </trkpt>
      <trkpt lat="45.34399" lon="4.75113">
        <ele>282.4</ele>
      </trkpt>
      <trkpt lat="45.34395" lon="4.7511">
        <ele>282.2</ele>
      </trkpt>
      <trkpt lat="45.3439" lon="4.75107">
        <ele>281.6</ele>
      </trkpt>
      <trkpt lat="45.34386" lon="4.75103">
        <ele>280.8</ele>
      </trkpt>
      <trkpt lat="45.34375" lon="4.75096">
        <ele>277.9</ele>
      </trkpt>
      <trkpt lat="45.34371" lon="4.75086">
        <ele>278.4</ele>
      </trkpt>
      <trkpt lat="45.34368" lon="4.75082">
        <ele>278.2</ele>
      </trkpt>
      <trkpt lat="45.34363" lon="4.75075">
        <ele>278</ele>
      </trkpt>
      <trkpt lat="45.3436" lon="4.75066">
        <ele>278.7</ele>
      </trkpt>
      <trkpt lat="45.34356" lon="4.7506">
        <ele>278.2</ele>
      </trkpt>
      <trkpt lat="45.34352" lon="4.75051">
        <ele>277.7</ele>
      </trkpt>
      <trkpt lat="45.34349" lon="4.75041">
        <ele>277.3</ele>
      </trkpt>
      <trkpt lat="45.34346" lon="4.7503">
        <ele>276.9</ele>
      </trkpt>
      <trkpt lat="45.34341" lon="4.75026">
        <ele>275.1</ele>
      </trkpt>
      <trkpt lat="45.34339" lon="4.75015">
        <ele>274.6</ele>
      </trkpt>
      <trkpt lat="45.34337" lon="4.74996">
        <ele>274.5</ele>
      </trkpt>
      <trkpt lat="45.34335" lon="4.74989">
        <ele>274</ele>
      </trkpt>
      <trkpt lat="45.34333" lon="4.74989">
        <ele>273.2</ele>
      </trkpt>
      <trkpt lat="45.34332" lon="4.74989">
        <ele>272.8</ele>
      </trkpt>
      <trkpt lat="45.34331" lon="4.74992">
        <ele>272.2</ele>
      </trkpt>
      <trkpt lat="45.34326" lon="4.75006">
        <ele>269.3</ele>
      </trkpt>
      <trkpt lat="45.3432" lon="4.75027">
        <ele>265.3</ele>
      </trkpt>
      <trkpt lat="45.34314" lon="4.75036">
        <ele>261.7</ele>
      </trkpt>
      <trkpt lat="45.34312" lon="4.75038">
        <ele>260.5</ele>
      </trkpt>
      <trkpt lat="45.34309" lon="4.75037">
        <ele>259.1</ele>
      </trkpt>
      <trkpt lat="45.34308" lon="4.7503">
        <ele>259.1</ele>
      </trkpt>
      <trkpt lat="45.34307" lon="4.75025">
        <ele>258.9</ele>
      </trkpt>
      <trkpt lat="45.34305" lon="4.75014">
        <ele>258.7</ele>
      </trkpt>
      <trkpt lat="45.34304" lon="4.7501">
        <ele>258.5</ele>
      </trkpt>
      <trkpt lat="45.34303" lon="4.75008">
        <ele>258.2</ele>
      </trkpt>
      <trkpt lat="45.34302" lon="4.75007">
        <ele>257.8</ele>
      </trkpt>
      <trkpt lat="45.343" lon="4.75007">
        <ele>256.8</ele>
      </trkpt>
      <trkpt lat="45.34299" lon="4.75007">
        <ele>256.3</ele>
      </trkpt>
      <trkpt lat="45.34297" lon="4.75009">
        <ele>255.2</ele>
      </trkpt>
      <trkpt lat="45.34295" lon="4.75012">
        <ele>254.1</ele>
      </trkpt>
      <trkpt lat="45.34292" lon="4.75017">
        <ele>252.5</ele>
      </trkpt>
      <trkpt lat="45.34288" lon="4.75025">
        <ele>250.5</ele>
      </trkpt>
      <trkpt lat="45.34285" lon="4.75032">
        <ele>248.7</ele>
      </trkpt>
      <trkpt lat="45.34284" lon="4.75037">
        <ele>247.8</ele>
      </trkpt>
      <trkpt lat="45.34284" lon="4.75044">
        <ele>247.1</ele>
      </trkpt>
      <trkpt lat="45.34285" lon="4.75049">
        <ele>247</ele>
      </trkpt>
      <trkpt lat="45.34289" lon="4.75066">
        <ele>246.3</ele>
      </trkpt>
      <trkpt lat="45.34295" lon="4.75085">
        <ele>245.8</ele>
      </trkpt>
      <trkpt lat="45.34296" lon="4.75089">
        <ele>245.1</ele>
        <extensions>
          <visugpx:TrkExtension xmlns:visugpx="https://www.visugpx.com/editgpx/">
            <visugpx:node>6</visugpx:node>
            </visugpx:TrkExtension>
        </extensions>
      </trkpt>
      <trkpt lat="45.34306" lon="4.75123">
        <ele>240.4</ele>
      </trkpt>
      <trkpt lat="45.34313" lon="4.75149">
        <ele>237.2</ele>
      </trkpt>
      <trkpt lat="45.34315" lon="4.75166">
        <ele>234</ele>
      </trkpt>
      <trkpt lat="45.34316" lon="4.75182">
        <ele>231.1</ele>
      </trkpt>
      <trkpt lat="45.34318" lon="4.75188">
        <ele>230.8</ele>
      </trkpt>
      <trkpt lat="45.3432" lon="4.75192">
        <ele>230.8</ele>
      </trkpt>
      <trkpt lat="45.34326" lon="4.75197">
        <ele>232.1</ele>
      </trkpt>
      <trkpt lat="45.34347" lon="4.7521">
        <ele>235.2</ele>
      </trkpt>
      <trkpt lat="45.34355" lon="4.75215">
        <ele>236.2</ele>
      </trkpt>
      <trkpt lat="45.3436" lon="4.75221">
        <ele>236</ele>
      </trkpt>
      <trkpt lat="45.34361" lon="4.75222">
        <ele>236</ele>
      </trkpt>
      <trkpt lat="45.34361" lon="4.7523">
        <ele>234.3</ele>
      </trkpt>
      <trkpt lat="45.34362" lon="4.75233">
        <ele>233.9</ele>
      </trkpt>
      <trkpt lat="45.34366" lon="4.7524">
        <ele>233.5</ele>
      </trkpt>
      <trkpt lat="45.34374" lon="4.75246">
        <ele>233.9</ele>
      </trkpt>
      <trkpt lat="45.3439" lon="4.75258">
        <ele>233.4</ele>
      </trkpt>
      <trkpt lat="45.34418" lon="4.75277">
        <ele>233.6</ele>
      </trkpt>
      <trkpt lat="45.34425" lon="4.75281">
        <ele>233.8</ele>
      </trkpt>
      <trkpt lat="45.34432" lon="4.75284">
        <ele>234.4</ele>
      </trkpt>
      <trkpt lat="45.34439" lon="4.75289">
        <ele>234.4</ele>
      </trkpt>
      <trkpt lat="45.34445" lon="4.75296">
        <ele>233.6</ele>
      </trkpt>
      <trkpt lat="45.34448" lon="4.753">
        <ele>233.3</ele>
      </trkpt>
      <trkpt lat="45.34451" lon="4.75305">
        <ele>232.6</ele>
      </trkpt>
      <trkpt lat="45.34456" lon="4.75313">
        <ele>232</ele>
      </trkpt>
      <trkpt lat="45.34459" lon="4.75318">
        <ele>231.7</ele>
      </trkpt>
      <trkpt lat="45.34446" lon="4.75308">
        <ele>229.8</ele>
      </trkpt>
      <trkpt lat="45.34436" lon="4.75305">
        <ele>227.5</ele>
      </trkpt>
      <trkpt lat="45.344" lon="4.75315">
        <ele>212.4</ele>
      </trkpt>
      <trkpt lat="45.34389" lon="4.75316">
        <ele>208.8</ele>
      </trkpt>
      <trkpt lat="45.34381" lon="4.75315">
        <ele>207.5</ele>
      </trkpt>
      <trkpt lat="45.3437" lon="4.75314">
        <ele>205.7</ele>
      </trkpt>
      <trkpt lat="45.34353" lon="4.75318">
        <ele>200.1</ele>
      </trkpt>
      <trkpt lat="45.34342" lon="4.75316">
        <ele>198.7</ele>
      </trkpt>
      <trkpt lat="45.34332" lon="4.7531">
        <ele>198.5</ele>
      </trkpt>
      <trkpt lat="45.3433" lon="4.7531">
        <ele>197.5</ele>
      </trkpt>
      <trkpt lat="45.34332" lon="4.75314">
        <ele>197</ele>
      </trkpt>
      <trkpt lat="45.3434" lon="4.75323">
        <ele>195.3</ele>
      </trkpt>
      <trkpt lat="45.3436" lon="4.75343">
        <ele>189</ele>
      </trkpt>
      <trkpt lat="45.34371" lon="4.75357">
        <ele>184.5</ele>
      </trkpt>
      <trkpt lat="45.34383" lon="4.75377">
        <ele>178.9</ele>
      </trkpt>
      <trkpt lat="45.34398" lon="4.75413">
        <ele>170.9</ele>
      </trkpt>
      <trkpt lat="45.34403" lon="4.75426">
        <ele>168.4</ele>
        <extensions>
          <visugpx:TrkExtension xmlns:visugpx="https://www.visugpx.com/editgpx/">
            <visugpx:node>7</visugpx:node>
            </visugpx:TrkExtension>
        </extensions>
      </trkpt>
      <trkpt lat="45.34408" lon="4.75439">
        <ele>165.2</ele>
      </trkpt>
      <trkpt lat="45.34424" lon="4.7548">
        <ele>157.2</ele>
      </trkpt>
      <trkpt lat="45.34435" lon="4.75487">
        <ele>157.7</ele>
      </trkpt>
      <trkpt lat="45.34449" lon="4.75497">
        <ele>157.2</ele>
      </trkpt>
      <trkpt lat="45.34456" lon="4.75506">
        <ele>157.7</ele>
      </trkpt>
      <trkpt lat="45.34461" lon="4.75516">
        <ele>157</ele>
      </trkpt>
      <trkpt lat="45.34476" lon="4.75563">
        <ele>149.5</ele>
      </trkpt>
      <trkpt lat="45.34487" lon="4.75568">
        <ele>152.1</ele>
      </trkpt>
      <trkpt lat="45.34495" lon="4.75574">
        <ele>152.5</ele>
      </trkpt>
      <trkpt lat="45.34506" lon="4.75575">
        <ele>153.6</ele>
      </trkpt>
      <trkpt lat="45.34526" lon="4.75568">
        <ele>157.5</ele>
      </trkpt>
      <trkpt lat="45.34544" lon="4.75553">
        <ele>162.2</ele>
        <extensions>
          <visugpx:TrkExtension xmlns:visugpx="https://www.visugpx.com/editgpx/">
            <visugpx:node>8</visugpx:node>
            </visugpx:TrkExtension>
        </extensions>
      </trkpt>
      <trkpt lat="45.34546" lon="4.75551">
        <ele>162.7</ele>
      </trkpt>
      <trkpt lat="45.34565" lon="4.75545">
        <ele>162.6</ele>
      </trkpt>
      <trkpt lat="45.34584" lon="4.75533">
        <ele>166.3</ele>
      </trkpt>
      <trkpt lat="45.34602" lon="4.75512">
        <ele>174</ele>
      </trkpt>
      <trkpt lat="45.34612" lon="4.75503">
        <ele>177.6</ele>
      </trkpt>
      <trkpt lat="45.34622" lon="4.75503">
        <ele>177.7</ele>
      </trkpt>
      <trkpt lat="45.34642" lon="4.75508">
        <ele>176.2</ele>
      </trkpt>
      <trkpt lat="45.34681" lon="4.75535">
        <ele>173.9</ele>
      </trkpt>
      <trkpt lat="45.34694" lon="4.75549">
        <ele>173.5</ele>
      </trkpt>
      <trkpt lat="45.34734" lon="4.75598">
        <ele>168.7</ele>
      </trkpt>
      <trkpt lat="45.34754" lon="4.75615">
        <ele>168.5</ele>
      </trkpt>
      <trkpt lat="45.34755" lon="4.75616">
        <ele>168.1</ele>
      </trkpt>
      <trkpt lat="45.34759" lon="4.75618">
        <ele>167.3</ele>
      </trkpt>
      <trkpt lat="45.34763" lon="4.7562">
        <ele>166.5</ele>
      </trkpt>
      <trkpt lat="45.34768" lon="4.75621">
        <ele>166</ele>
      </trkpt>
      <trkpt lat="45.34769" lon="4.75621">
        <ele>165.9</ele>
        <extensions>
          <visugpx:TrkExtension xmlns:visugpx="https://www.visugpx.com/editgpx/">
            <visugpx:node>9</visugpx:node>
            </visugpx:TrkExtension>
        </extensions>
      </trkpt>
      <trkpt lat="45.34777" lon="4.75622">
        <ele>165.3</ele>
      </trkpt>
      <trkpt lat="45.34794" lon="4.7563">
        <ele>161.5</ele>
      </trkpt>
      <trkpt lat="45.34808" lon="4.75636">
        <ele>158.4</ele>
      </trkpt>
      <trkpt lat="45.3482" lon="4.75639">
        <ele>155.9</ele>
      </trkpt>
      <trkpt lat="45.34834" lon="4.75639">
        <ele>153.8</ele>
      </trkpt>
      <trkpt lat="45.34839" lon="4.75638">
        <ele>153</ele>
      </trkpt>
      <trkpt lat="45.34846" lon="4.75636">
        <ele>152.1</ele>
      </trkpt>
      <trkpt lat="45.34849" lon="4.75635">
        <ele>151.8</ele>
      </trkpt>
      <trkpt lat="45.34855" lon="4.75634">
        <ele>150.9</ele>
      </trkpt>
      <trkpt lat="45.34865" lon="4.7563">
        <ele>150.4</ele>
      </trkpt>
      <trkpt lat="45.34876" lon="4.75625">
        <ele>150.4</ele>
      </trkpt>
      <trkpt lat="45.3488" lon="4.75622">
        <ele>150.5</ele>
      </trkpt>
      <trkpt lat="45.34885" lon="4.75612">
        <ele>151.7</ele>
      </trkpt>
      <trkpt lat="45.34886" lon="4.75607">
        <ele>152.3</ele>
      </trkpt>
      <trkpt lat="45.34886" lon="4.75605">
        <ele>152.6</ele>
      </trkpt>
      <trkpt lat="45.34888" lon="4.75593">
        <ele>153.9</ele>
      </trkpt>
      <trkpt lat="45.34889" lon="4.75584">
        <ele>154.9</ele>
      </trkpt>
      <trkpt lat="45.34892" lon="4.75577">
        <ele>155.6</ele>
      </trkpt>
      <trkpt lat="45.34895" lon="4.75571">
        <ele>155.9</ele>
      </trkpt>
      <trkpt lat="45.34898" lon="4.75565">
        <ele>155.9</ele>
      </trkpt>
      <trkpt lat="45.34903" lon="4.75559">
        <ele>155.1</ele>
      </trkpt>
      <trkpt lat="45.34908" lon="4.75554">
        <ele>153.9</ele>
      </trkpt>
      <trkpt lat="45.34913" lon="4.75548">
        <ele>152.5</ele>
      </trkpt>
      <trkpt lat="45.34914" lon="4.75553">
        <ele>152</ele>
      </trkpt>
      <trkpt lat="45.34917" lon="4.7556">
        <ele>151</ele>
      </trkpt>
      <trkpt lat="45.34924" lon="4.75571">
        <ele>150.6</ele>
      </trkpt>
      <trkpt lat="45.34932" lon="4.75584">
        <ele>149.9</ele>
      </trkpt>
      <trkpt lat="45.34937" lon="4.75593">
        <ele>149.1</ele>
      </trkpt>
      <trkpt lat="45.3494" lon="4.756">
        <ele>148.6</ele>
      </trkpt>
      <trkpt lat="45.34942" lon="4.75606">
        <ele>148.3</ele>
      </trkpt>
      <trkpt lat="45.34944" lon="4.75613">
        <ele>147.9</ele>
      </trkpt>
      <trkpt lat="45.34945" lon="4.75621">
        <ele>147.6</ele>
      </trkpt>
      <trkpt lat="45.34946" lon="4.75628">
        <ele>147.3</ele>
      </trkpt>
      <trkpt lat="45.34946" lon="4.75635">
        <ele>147.1</ele>
      </trkpt>
      <trkpt lat="45.34947" lon="4.75644">
        <ele>146.4</ele>
      </trkpt>
      <trkpt lat="45.34954" lon="4.75646">
        <ele>146</ele>
      </trkpt>
      <trkpt lat="45.34958" lon="4.75649">
        <ele>145.6</ele>
      </trkpt>
      <trkpt lat="45.34965" lon="4.75653">
        <ele>145.1</ele>
      </trkpt>
      <trkpt lat="45.34969" lon="4.75654">
        <ele>145</ele>
      </trkpt>
      <trkpt lat="45.34981" lon="4.75656">
        <ele>144.6</ele>
      </trkpt>
      <trkpt lat="45.34987" lon="4.75656">
        <ele>144.6</ele>
      </trkpt>
      <trkpt lat="45.34998" lon="4.75657">
        <ele>144.4</ele>
      </trkpt>
      <trkpt lat="45.35014" lon="4.75661">
        <ele>143.7</ele>
      </trkpt>
      <trkpt lat="45.35025" lon="4.75666">
        <ele>143.1</ele>
      </trkpt>
      <trkpt lat="45.35027" lon="4.75668">
        <ele>143</ele>
      </trkpt>
      <trkpt lat="45.35027" lon="4.75671">
        <ele>143</ele>
        <extensions>
          <visugpx:TrkExtension xmlns:visugpx="https://www.visugpx.com/editgpx/">
            <visugpx:node>10</visugpx:node>
            </visugpx:TrkExtension>
        </extensions>
      </trkpt>
      <trkpt lat="45.35027" lon="4.75681">
        <ele>143</ele>
      </trkpt>
      <trkpt lat="45.35028" lon="4.75687">
        <ele>143</ele>
      </trkpt>
      <trkpt lat="45.35029" lon="4.75696">
        <ele>142.8</ele>
      </trkpt>
      <trkpt lat="45.35019" lon="4.75737">
        <ele>140.3</ele>
      </trkpt>
      <trkpt lat="45.35012" lon="4.75767">
        <ele>139.7</ele>
      </trkpt>
      <trkpt lat="45.35012" lon="4.75771">
        <ele>139.6</ele>
      </trkpt>
      <trkpt lat="45.3501" lon="4.7578">
        <ele>139.3</ele>
      </trkpt>
      <trkpt lat="45.35011" lon="4.75783">
        <ele>139.2</ele>
      </trkpt>
      <trkpt lat="45.35012" lon="4.75787">
        <ele>139.1</ele>
      </trkpt>
      <trkpt lat="45.35016" lon="4.75796">
        <ele>138.9</ele>
      </trkpt>
      <trkpt lat="45.35029" lon="4.75815">
        <ele>138.7</ele>
      </trkpt>
      <trkpt lat="45.35034" lon="4.75824">
        <ele>138.5</ele>
      </trkpt>
      <trkpt lat="45.35036" lon="4.7583">
        <ele>138.4</ele>
      </trkpt>
      <trkpt lat="45.35036" lon="4.75841">
        <ele>138.2</ele>
      </trkpt>
      <trkpt lat="45.35034" lon="4.75854">
        <ele>138.1</ele>
      </trkpt>
      <trkpt lat="45.35032" lon="4.75868">
        <ele>138.6</ele>
      </trkpt>
      <trkpt lat="45.35032" lon="4.75876">
        <ele>139.4</ele>
      </trkpt>
      <trkpt lat="45.35033" lon="4.7588">
        <ele>139.7</ele>
      </trkpt>
      <trkpt lat="45.35065" lon="4.75897">
        <ele>139</ele>
      </trkpt>
      <trkpt lat="45.35081" lon="4.75905">
        <ele>139.3</ele>
      </trkpt>
      <trkpt lat="45.35104" lon="4.75917">
        <ele>138.5</ele>
      </trkpt>
      <trkpt lat="45.35127" lon="4.75929">
        <ele>139</ele>
      </trkpt>
      <trkpt lat="45.35134" lon="4.75934">
        <ele>139</ele>
        <extensions>
          <visugpx:TrkExtension xmlns:visugpx="https://www.visugpx.com/editgpx/">
            <visugpx:node>11</visugpx:node>
            </visugpx:TrkExtension>
        </extensions>
      </trkpt>
      <trkpt lat="45.35138" lon="4.75937">
        <ele>138.8</ele>
      </trkpt>
      <trkpt lat="45.35187" lon="4.75961">
        <ele>139.8</ele>
      </trkpt>
      <trkpt lat="45.35221" lon="4.75977">
        <ele>139.5</ele>
      </trkpt>
      <trkpt lat="45.35234" lon="4.7598">
        <ele>139.8</ele>
      </trkpt>
      <trkpt lat="45.3526" lon="4.75987">
        <ele>140.2</ele>
      </trkpt>
      <trkpt lat="45.35291" lon="4.75997">
        <ele>139.9</ele>
      </trkpt>
      <trkpt lat="45.35306" lon="4.76001">
        <ele>140.1</ele>
      </trkpt>
      <trkpt lat="45.35316" lon="4.76003">
        <ele>140.2</ele>
      </trkpt>
      <trkpt lat="45.35322" lon="4.76003">
        <ele>140.2</ele>
        <extensions>
          <visugpx:TrkExtension xmlns:visugpx="https://www.visugpx.com/editgpx/">
            <visugpx:node>12</visugpx:node>
            </visugpx:TrkExtension>
        </extensions>
      </trkpt>
    </trkseg>
  </trk>
</gpx>